createdAt,value
2022-08-10T00:00:45.696Z,13.72
2022-08-10T00:06:08.197Z,13.78
2022-08-10T00:11:30.910Z,13.65
2022-08-10T00:16:53.157Z,13.64
2022-08-10T00:22:17.008Z,13.62
2022-08-10T00:27:52.984Z,13.69
2022-08-10T00:33:04.502Z,13.78
2022-08-10T00:38:26.702Z,13.83
2022-08-10T00:43:49.997Z,13.82
2022-08-10T00:49:12.738Z,13.76
2022-08-10T00:54:36.468Z,13.90
2022-08-10T01:00:00.540Z,14.08
2022-08-10T01:05:26.005Z,14.03
2022-08-10T01:12:39.464Z,13.99
2022-08-10T01:16:50.885Z,14.00
2022-08-10T01:22:33.117Z,13.92
2022-08-10T01:28:09.300Z,13.86
2022-08-10T01:34:02.447Z,13.67
2022-08-10T01:39:07.151Z,13.52
2022-08-10T01:44:43.847Z,13.40
2022-08-10T01:50:14.181Z,13.36
2022-08-10T01:55:38.295Z,13.39
2022-08-10T02:01:03.566Z,13.48
2022-08-10T02:06:27.730Z,13.46
2022-08-10T02:12:06.675Z,13.41
2022-08-10T02:17:57.470Z,13.37
2022-08-10T02:22:52.700Z,13.20
2022-08-10T02:28:27.481Z,13.18
2022-08-10T02:33:57.366Z,13.11
2022-08-10T02:39:16.484Z,13.16
2022-08-10T02:45:20.367Z,13.23
2022-08-10T02:50:42.582Z,13.13
2022-08-10T02:56:27.249Z,13.03
2022-08-10T03:01:54.875Z,12.93
2022-08-10T03:07:43.535Z,12.85
2022-08-10T03:12:49.197Z,12.81
2022-08-10T03:18:13.530Z,12.80
2022-08-10T03:23:38.649Z,12.82
2022-08-10T03:29:03.452Z,12.96
2022-08-10T03:34:33.626Z,13.03
2022-08-10T03:39:51.648Z,13.05
2022-08-10T03:45:16.530Z,13.12
2022-08-10T03:50:51.323Z,13.16
2022-08-10T03:56:28.909Z,13.22
2022-08-10T04:02:43.491Z,13.27
2022-08-10T04:06:57.684Z,13.29
2022-08-10T04:12:20.834Z,13.30
2022-08-10T04:18:03.208Z,13.33
2022-08-10T04:23:15.412Z,13.42
2022-08-10T04:28:39.540Z,13.54
2022-08-10T04:34:08.858Z,13.67
2022-08-10T04:39:30.184Z,13.83
2022-08-10T04:44:55.367Z,14.01
2022-08-10T04:50:18.106Z,14.12
2022-08-10T04:55:40.469Z,14.25
2022-08-10T05:01:02.819Z,14.44
2022-08-10T05:06:25.786Z,14.53
2022-08-10T05:11:48.052Z,14.68
2022-08-10T05:17:10.728Z,14.76
2022-08-10T05:22:33.450Z,14.91
2022-08-10T05:27:57.828Z,15.08
2022-08-10T05:33:20.346Z,15.17
2022-08-10T05:38:45.302Z,15.25
2022-08-10T05:44:09.122Z,15.42
2022-08-10T05:49:31.302Z,15.50
2022-08-10T05:54:53.665Z,15.63
2022-08-10T06:00:36.241Z,15.77
2022-08-10T06:05:47.762Z,15.99
2022-08-10T06:12:24.408Z,16.27
2022-08-10T06:17:35.267Z,16.50
2022-08-10T06:45:20.355Z,17.64
2022-08-10T06:51:12.111Z,17.63
2022-08-10T06:56:55.776Z,17.74
2022-08-10T07:02:23.577Z,17.92
2022-08-10T07:14:18.367Z,18.21
2022-08-10T07:19:50.495Z,18.28
2022-08-10T07:25:35.422Z,18.54
2022-08-10T07:31:34.825Z,18.79
2022-08-10T09:04:59.913Z,21.21
2022-08-10T09:11:02.841Z,21.53
2022-08-10T09:17:04.912Z,21.43
2022-08-10T09:22:32.715Z,21.61
2022-08-10T09:28:09.713Z,21.69
2022-08-10T09:36:21.410Z,22.23
2022-08-10T09:40:12.573Z,22.42
2022-08-10T09:52:18.363Z,23.16
2022-08-10T09:58:35.766Z,24.22
2022-08-10T10:04:17.984Z,25.42
2022-08-10T10:09:47.948Z,25.86
2022-08-10T10:15:33.299Z,25.86
2022-08-10T10:21:54.810Z,26.46
2022-08-10T10:27:16.230Z,26.70
2022-08-10T10:32:58.130Z,23.86
2022-08-10T10:38:22.132Z,23.80
2022-08-10T10:50:06.541Z,26.70
2022-08-10T10:56:15.516Z,24.82
2022-08-10T11:01:43.295Z,25.88
2022-08-10T11:07:34.639Z,26.94
2022-08-10T11:14:24.409Z,26.15
2022-08-10T11:19:16.241Z,27.06
2022-08-10T11:30:36.215Z,26.86
2022-08-10T11:36:13.240Z,28.14
2022-08-10T11:42:09.033Z,27.68
2022-08-10T11:47:21.700Z,26.16
2022-08-10T11:53:08.697Z,27.48
2022-08-10T11:58:54.143Z,26.85
2022-08-10T12:04:22.409Z,25.79
2022-08-10T12:10:08.982Z,27.06
2022-08-10T12:15:37.167Z,27.53
2022-08-10T12:21:04.634Z,26.58
2022-08-10T12:26:58.361Z,27.94
2022-08-10T12:32:38.003Z,28.79
2022-08-10T12:38:12.015Z,27.25
2022-08-10T12:44:06.278Z,25.54
2022-08-10T12:49:37.888Z,26.18
2022-08-10T12:55:04.105Z,27.29
2022-08-10T13:00:27.387Z,28.83
2022-08-10T13:05:57.538Z,29.20
2022-08-10T13:12:36.581Z,29.55
2022-08-10T13:16:49.316Z,27.38
2022-08-10T13:22:14.114Z,27.35
2022-08-10T13:28:02.698Z,29.36
2022-08-10T13:33:10.412Z,29.77
2022-08-10T13:38:35.015Z,29.66
2022-08-10T13:44:04.972Z,29.94
2022-08-10T13:49:30.052Z,29.35
2022-08-10T13:54:58.942Z,28.07
2022-08-10T14:00:34.533Z,26.76
2022-08-10T14:05:59.505Z,25.74
2022-08-10T14:11:25.902Z,26.50
2022-08-10T14:16:50.990Z,28.18
2022-08-10T14:22:15.088Z,29.00
2022-08-10T14:28:02.284Z,30.64
2022-08-10T14:33:06.338Z,30.44
2022-08-10T14:38:34.436Z,30.49
2022-08-10T14:44:05.630Z,29.58
2022-08-10T14:49:30.142Z,28.68
2022-08-10T14:54:57.606Z,26.92
2022-08-10T15:00:30.876Z,26.02
2022-08-10T15:05:47.504Z,27.56
2022-08-10T15:12:12.316Z,29.16
2022-08-10T15:16:48.258Z,29.21
2022-08-10T15:22:36.609Z,29.57
2022-08-10T15:27:56.420Z,30.76
2022-08-10T15:33:57.557Z,30.27
2022-08-10T15:39:17.298Z,30.95
2022-08-10T15:44:43.241Z,30.89
2022-08-10T15:50:22.834Z,29.87
2022-08-10T15:55:55.331Z,30.55
2022-08-10T16:02:13.811Z,30.41
2022-08-10T16:07:06.188Z,29.60
2022-08-10T16:12:43.047Z,30.22
2022-08-10T16:18:21.524Z,29.17
2022-08-10T16:24:15.417Z,29.84
2022-08-10T16:29:20.664Z,29.98
2022-08-10T16:34:46.078Z,29.54
2022-08-10T16:40:14.977Z,29.47
2022-08-10T16:45:45.234Z,29.17
2022-08-10T16:51:14.821Z,28.97
2022-08-10T16:56:48.636Z,28.92
2022-08-10T17:02:07.169Z,28.95
2022-08-10T17:07:33.780Z,29.08
2022-08-10T17:13:00.095Z,28.84
2022-08-10T17:18:30.688Z,28.79
2022-08-10T17:23:57.309Z,28.50
2022-08-10T17:29:58.484Z,28.15
2022-08-10T17:34:58.245Z,27.55
2022-08-10T17:40:30.511Z,26.95
2022-08-10T17:45:54.348Z,26.47
2022-08-10T17:51:20.648Z,25.53
2022-08-10T17:56:46.164Z,24.17
2022-08-10T18:02:17.599Z,23.10
2022-08-10T18:07:47.267Z,22.36
2022-08-10T18:13:15.824Z,21.78
2022-08-10T18:18:41.073Z,21.34
2022-08-10T18:24:14.174Z,20.86
2022-08-10T18:29:37.315Z,20.61
2022-08-10T18:35:04.369Z,20.44
2022-08-10T18:40:36.046Z,20.17
2022-08-10T18:45:57.374Z,19.87
2022-08-10T18:51:24.327Z,19.47
2022-08-10T18:57:11.196Z,19.27
2022-08-10T19:03:08.787Z,19.34
2022-08-10T19:09:46.756Z,19.76
2022-08-10T19:14:54.725Z,19.79
2022-08-10T19:20:49.224Z,19.66
2022-08-10T19:26:45.988Z,19.54
2022-08-10T19:32:33.821Z,19.47
2022-08-10T19:38:33.288Z,19.30
2022-08-10T19:44:02.603Z,19.24
2022-08-10T19:49:51.245Z,19.18
2022-08-10T19:55:20.930Z,19.02
2022-08-10T20:00:40.328Z,18.96
2022-08-10T20:06:22.792Z,18.80
2022-08-10T20:12:07.868Z,18.71
2022-08-10T20:17:55.701Z,18.65
2022-08-10T20:23:28.193Z,18.43
2022-08-10T20:29:57.417Z,18.41
2022-08-10T20:34:55.662Z,18.33
2022-08-10T20:40:25.947Z,18.20
2022-08-10T20:46:14.203Z,18.06
2022-08-10T20:51:58.937Z,17.93
2022-08-10T20:57:56.492Z,17.84
2022-08-10T21:03:33.701Z,17.72
2022-08-10T21:09:15.367Z,17.59
2022-08-10T21:15:08.950Z,17.66
2022-08-10T21:20:54.563Z,17.43
2022-08-10T21:26:32.727Z,17.35
2022-08-10T21:32:18.379Z,17.23
2022-08-10T21:37:58.671Z,17.20
2022-08-10T21:43:53.246Z,17.05
2022-08-10T21:50:07.223Z,16.94
2022-08-10T21:56:03.078Z,16.82
2022-08-10T22:08:01.600Z,16.43
2022-08-10T22:13:48.225Z,16.41
2022-08-10T22:19:31.962Z,16.32
2022-08-10T22:25:23.297Z,16.22
2022-08-10T22:31:32.361Z,16.19
2022-08-10T22:37:24.459Z,16.19
2022-08-10T22:43:35.164Z,16.10
2022-08-10T22:49:01.408Z,16.07
2022-08-10T22:55:03.847Z,16.00
2022-08-10T23:00:32.533Z,15.82
2022-08-10T23:06:15.432Z,15.65
2022-08-10T23:11:45.633Z,15.46
2022-08-10T23:18:01.072Z,15.25
2022-08-10T23:23:07.454Z,15.09
2022-08-10T23:28:55.451Z,15.02
2022-08-10T23:33:53.958Z,14.99
2022-08-10T23:39:27.058Z,14.82
2022-08-10T23:44:50.062Z,14.77
2022-08-10T23:50:16.885Z,14.73
2022-08-10T23:55:49.422Z,14.74
